createdAt,value
2022-11-16T00:00:37.912Z,10.25
2022-11-16T00:03:22.776Z,10.68
2022-11-16T00:06:07.586Z,10.83
2022-11-16T00:08:52.469Z,10.90
2022-11-16T00:11:37.210Z,11.09
2022-11-16T00:14:22.121Z,11.21
2022-11-16T00:17:07.083Z,11.26
2022-11-16T00:19:51.851Z,11.39
2022-11-16T00:22:36.868Z,11.44
2022-11-16T00:25:22.449Z,11.40
2022-11-16T00:28:07.866Z,11.41
2022-11-16T00:30:52.883Z,11.42
2022-11-16T00:33:37.687Z,11.40
2022-11-16T00:36:22.601Z,11.37
2022-11-16T00:39:07.416Z,11.49
2022-11-16T00:41:52.229Z,11.43
2022-11-16T00:44:37.198Z,11.48
2022-11-16T00:47:22.087Z,11.47
2022-11-16T00:50:06.952Z,11.42
2022-11-16T00:52:51.914Z,11.44
2022-11-16T00:55:36.751Z,11.39
2022-11-16T00:58:21.526Z,11.57
2022-11-16T01:01:06.478Z,11.65
2022-11-16T01:03:51.749Z,11.55
2022-11-16T01:06:36.790Z,11.51
2022-11-16T01:09:21.538Z,11.61
2022-11-16T01:12:06.368Z,11.41
2022-11-16T01:14:51.300Z,11.48
2022-11-16T01:17:36.231Z,11.55
2022-11-16T01:20:21.078Z,11.78
2022-11-16T01:23:05.847Z,11.45
2022-11-16T01:25:50.828Z,11.45
2022-11-16T01:28:36.140Z,11.49
2022-11-16T01:31:21.532Z,11.58
2022-11-16T01:34:06.444Z,11.63
2022-11-16T01:36:51.380Z,11.55
2022-11-16T01:39:36.227Z,11.61
2022-11-16T01:42:21.040Z,11.63
2022-11-16T01:45:06.030Z,11.61
2022-11-16T01:47:51.028Z,11.57
2022-11-16T01:50:35.793Z,11.60
2022-11-16T01:53:20.550Z,11.42
2022-11-16T01:56:05.487Z,11.45
2022-11-16T01:58:50.288Z,11.44
2022-11-16T02:01:35.338Z,11.42
2022-11-16T02:04:20.209Z,11.24
2022-11-16T02:07:05.069Z,11.25
2022-11-16T02:09:50.505Z,11.22
2022-11-16T02:12:35.439Z,11.05
2022-11-16T02:15:20.313Z,11.25
2022-11-16T02:18:05.246Z,11.29
2022-11-16T02:20:50.124Z,11.36
2022-11-16T02:23:34.980Z,11.39
2022-11-16T02:26:19.890Z,11.44
2022-11-16T02:29:04.782Z,11.40
2022-11-16T02:31:49.774Z,11.41
2022-11-16T02:34:34.574Z,11.34
2022-11-16T02:37:19.305Z,11.39
2022-11-16T02:40:04.234Z,11.55
2022-11-16T02:42:49.154Z,11.67
2022-11-16T02:45:34.100Z,11.72
2022-11-16T02:48:18.964Z,11.62
2022-11-16T02:51:03.925Z,11.61
2022-11-16T02:53:48.696Z,11.68
2022-11-16T02:56:33.595Z,11.71
2022-11-16T02:59:18.312Z,11.44
2022-11-16T03:02:03.278Z,11.59
2022-11-16T03:04:48.237Z,11.65
2022-11-16T03:07:33.199Z,11.71
2022-11-16T03:10:18.140Z,11.59
2022-11-16T03:13:02.865Z,11.61
2022-11-16T03:15:47.693Z,11.55
2022-11-16T03:18:32.897Z,11.54
2022-11-16T03:21:17.947Z,11.66
2022-11-16T03:24:02.781Z,11.58
2022-11-16T03:26:47.598Z,11.66
2022-11-16T03:29:32.637Z,11.65
2022-11-16T03:32:17.360Z,11.63
2022-11-16T03:35:02.432Z,11.61
2022-11-16T03:37:47.233Z,11.62
2022-11-16T03:40:32.218Z,11.66
2022-11-16T03:43:16.995Z,11.62
2022-11-16T03:46:01.855Z,11.60
2022-11-16T03:48:46.705Z,11.64
2022-11-16T03:51:31.782Z,11.68
2022-11-16T03:54:16.783Z,11.66
2022-11-16T03:57:01.592Z,11.58
2022-11-16T03:59:46.366Z,11.74
2022-11-16T04:02:31.321Z,11.73
2022-11-16T04:05:16.191Z,11.75
2022-11-16T04:08:01.060Z,11.81
2022-11-16T04:10:46.109Z,11.96
2022-11-16T04:13:31.026Z,11.85
2022-11-16T04:16:15.926Z,11.94
2022-11-16T04:19:00.829Z,11.90
2022-11-16T04:21:45.662Z,11.85
2022-11-16T04:24:30.576Z,11.95
2022-11-16T04:27:15.535Z,12.00
2022-11-16T04:30:00.555Z,12.06
2022-11-16T04:32:45.366Z,12.00
2022-11-16T04:35:30.244Z,11.88
2022-11-16T04:38:15.266Z,11.91
2022-11-16T04:41:00.006Z,11.96
2022-11-16T04:43:44.968Z,11.91
2022-11-16T04:46:29.815Z,11.96
2022-11-16T04:49:14.599Z,11.94
2022-11-16T04:51:59.383Z,11.91
2022-11-16T04:54:44.364Z,11.85
2022-11-16T04:57:29.170Z,11.79
2022-11-16T05:00:14.121Z,11.64
2022-11-16T05:03:01.516Z,11.84
2022-11-16T05:05:46.794Z,11.76
2022-11-16T05:08:32.125Z,11.71
2022-11-16T05:11:17.289Z,11.66
2022-11-16T05:14:02.267Z,11.63
2022-11-16T05:16:47.057Z,11.06
2022-11-16T05:19:32.048Z,11.56
2022-11-16T05:22:17.003Z,11.45
2022-11-16T05:25:01.898Z,11.20
2022-11-16T05:27:46.792Z,11.20
2022-11-16T05:30:31.811Z,11.56
2022-11-16T05:33:16.686Z,11.80
2022-11-16T05:36:01.491Z,11.75
2022-11-16T05:38:46.368Z,11.79
2022-11-16T05:41:31.351Z,11.61
2022-11-16T05:44:16.587Z,11.76
2022-11-16T05:47:01.583Z,11.71
2022-11-16T05:49:46.402Z,11.54
2022-11-16T05:52:31.409Z,11.64
2022-11-16T05:55:16.339Z,11.67
2022-11-16T05:58:01.197Z,11.73
2022-11-16T06:00:45.941Z,11.70
2022-11-16T06:03:30.814Z,11.64
2022-11-16T06:06:15.581Z,11.70
2022-11-16T06:09:00.453Z,11.72
2022-11-16T06:11:45.309Z,11.40
2022-11-16T06:14:30.177Z,11.44
2022-11-16T06:17:15.104Z,11.57
2022-11-16T06:19:59.852Z,11.77
2022-11-16T06:22:44.845Z,11.61
2022-11-16T06:25:29.726Z,11.74
2022-11-16T06:28:14.724Z,11.88
2022-11-16T06:30:59.704Z,11.65
2022-11-16T06:33:44.462Z,11.82
2022-11-16T06:36:29.376Z,11.57
2022-11-16T06:39:14.345Z,11.32
2022-11-16T06:41:59.307Z,11.54
2022-11-16T06:44:44.075Z,11.77
2022-11-16T06:47:28.999Z,11.98
2022-11-16T06:50:13.969Z,11.75
2022-11-16T06:52:58.993Z,11.49
2022-11-16T06:55:43.736Z,11.40
2022-11-16T06:58:28.596Z,11.42
2022-11-16T07:01:13.507Z,11.36
2022-11-16T07:03:58.973Z,11.42
2022-11-16T07:06:43.809Z,11.57
2022-11-16T07:09:28.702Z,11.77
2022-11-16T07:12:13.653Z,11.94
2022-11-16T07:14:58.378Z,12.03
2022-11-16T07:17:43.446Z,12.09
2022-11-16T07:20:28.280Z,12.02
2022-11-16T07:23:14.290Z,12.16
2022-11-16T07:25:59.376Z,12.29
2022-11-16T07:28:48.241Z,12.46
2022-11-16T07:31:33.870Z,12.37
2022-11-16T07:34:18.941Z,12.56
2022-11-16T07:37:03.623Z,12.26
2022-11-16T07:39:48.481Z,12.09
2022-11-16T07:42:33.265Z,12.36
2022-11-16T07:45:18.271Z,12.34
2022-11-16T07:48:03.107Z,11.98
2022-11-16T07:50:47.898Z,11.81
2022-11-16T07:53:32.713Z,11.57
2022-11-16T07:56:17.712Z,11.57
2022-11-16T07:59:02.561Z,11.97
2022-11-16T08:01:47.525Z,11.96
2022-11-16T08:04:32.473Z,12.14
2022-11-16T08:07:17.309Z,12.57
2022-11-16T08:10:02.178Z,12.01
2022-11-16T08:12:47.042Z,11.87
2022-11-16T08:15:31.982Z,12.24
2022-11-16T08:18:16.741Z,12.62
2022-11-16T08:21:01.627Z,12.36
2022-11-16T08:23:46.534Z,12.03
2022-11-16T08:26:31.438Z,12.49
2022-11-16T08:29:16.361Z,12.51
2022-11-16T08:32:01.186Z,12.33
2022-11-16T08:34:46.194Z,11.82
2022-11-16T08:37:31.091Z,12.19
2022-11-16T08:40:16.007Z,12.22
2022-11-16T08:43:00.813Z,12.03
2022-11-16T08:45:45.788Z,11.51
2022-11-16T08:48:31.035Z,11.66
2022-11-16T08:51:18.239Z,11.71
2022-11-16T08:54:03.685Z,11.87
2022-11-16T08:56:48.594Z,12.13
2022-11-16T08:59:33.460Z,12.34
2022-11-16T09:02:18.399Z,12.46
2022-11-16T09:05:03.250Z,12.63
2022-11-16T09:07:48.141Z,12.72
2022-11-16T09:10:32.982Z,12.59
2022-11-16T09:13:17.870Z,12.86
2022-11-16T09:16:03.012Z,13.16
2022-11-16T09:18:48.299Z,13.39
2022-11-16T09:21:32.893Z,13.10
2022-11-16T09:24:17.866Z,13.33
2022-11-16T09:27:02.598Z,13.18
2022-11-16T09:29:47.388Z,13.54
2022-11-16T09:32:32.441Z,13.96
2022-11-16T09:35:17.181Z,13.93
2022-11-16T09:38:02.078Z,14.34
2022-11-16T09:40:46.854Z,14.31
2022-11-16T09:43:32.146Z,14.42
2022-11-16T09:46:17.042Z,14.37
2022-11-16T09:49:01.959Z,14.20
2022-11-16T09:51:46.762Z,14.64
2022-11-16T09:54:31.643Z,14.49
2022-11-16T09:57:16.690Z,14.70
2022-11-16T10:00:01.463Z,14.74
2022-11-16T10:02:46.445Z,14.65
2022-11-16T10:05:31.270Z,14.76
2022-11-16T10:08:16.235Z,14.83
2022-11-16T10:11:01.012Z,14.71
2022-11-16T10:13:45.945Z,15.27
2022-11-16T10:16:30.784Z,14.90
2022-11-16T10:19:15.620Z,15.33
2022-11-16T10:22:00.630Z,15.47
2022-11-16T10:24:45.507Z,16.02
2022-11-16T10:27:30.384Z,15.90
2022-11-16T10:30:15.224Z,16.14
2022-11-16T10:33:00.126Z,16.16
2022-11-16T10:35:44.973Z,16.07
2022-11-16T10:38:30.037Z,16.04
2022-11-16T10:41:15.003Z,15.90
2022-11-16T10:43:59.919Z,15.65
2022-11-16T10:46:45.059Z,15.64
2022-11-16T10:49:29.941Z,15.46
2022-11-16T10:52:14.807Z,14.78
2022-11-16T10:54:59.746Z,15.41
2022-11-16T10:57:44.610Z,15.26
2022-11-16T11:00:29.397Z,15.81
2022-11-16T11:03:14.329Z,15.85
2022-11-16T11:05:59.306Z,16.21
2022-11-16T11:08:44.247Z,16.47
2022-11-16T11:11:29.170Z,16.07
2022-11-16T11:14:13.996Z,16.20
2022-11-16T11:16:58.855Z,15.31
2022-11-16T11:19:43.764Z,15.66
2022-11-16T11:22:28.679Z,14.04
2022-11-16T11:25:13.620Z,14.85
2022-11-16T11:27:58.501Z,14.81
2022-11-16T11:30:43.302Z,14.45
2022-11-16T11:33:28.236Z,14.65
2022-11-16T11:36:13.143Z,14.77
2022-11-16T11:38:58.055Z,15.37
2022-11-16T11:41:42.952Z,15.09
2022-11-16T11:44:27.665Z,14.80
2022-11-16T11:47:55.596Z,15.35
2022-11-16T11:50:17.621Z,15.04
2022-11-16T11:53:02.527Z,14.40
2022-11-16T11:55:47.386Z,14.68
2022-11-16T11:58:32.091Z,15.11
2022-11-16T12:01:22.181Z,15.19
2022-11-16T12:04:10.107Z,15.57
2022-11-16T12:06:55.039Z,15.90
2022-11-16T12:09:39.944Z,15.84
2022-11-16T12:12:24.906Z,15.54
2022-11-16T12:15:09.779Z,16.12
2022-11-16T12:17:54.772Z,16.74
2022-11-16T12:20:39.496Z,16.59
2022-11-16T12:23:24.324Z,17.08
2022-11-16T12:26:09.145Z,16.93
2022-11-16T12:28:53.940Z,16.81
2022-11-16T12:31:38.943Z,16.73
2022-11-16T12:34:23.905Z,16.69
2022-11-16T12:37:08.813Z,16.59
2022-11-16T12:39:53.670Z,16.85
2022-11-16T12:42:38.701Z,16.95
2022-11-16T12:45:27.640Z,16.80
2022-11-16T12:48:15.859Z,17.42
2022-11-16T12:51:00.973Z,17.28
2022-11-16T12:53:45.790Z,17.03
2022-11-16T12:56:30.595Z,17.26
2022-11-16T12:59:15.308Z,17.44
2022-11-16T13:02:00.773Z,17.49
2022-11-16T13:04:46.187Z,17.74
2022-11-16T13:07:31.074Z,17.92
2022-11-16T13:10:16.016Z,17.36
2022-11-16T13:13:29.662Z,17.28
2022-11-16T13:16:05.865Z,16.80
2022-11-16T13:18:50.764Z,17.07
2022-11-16T13:21:35.573Z,16.80
2022-11-16T13:24:20.487Z,16.65
2022-11-16T13:27:05.301Z,17.04
2022-11-16T13:29:50.306Z,17.33
2022-11-16T13:32:35.085Z,17.29
2022-11-16T13:35:19.964Z,17.03
2022-11-16T13:38:04.914Z,16.90
2022-11-16T13:40:49.854Z,16.84
2022-11-16T13:43:34.818Z,17.15
2022-11-16T13:46:53.777Z,16.89
2022-11-16T13:49:24.687Z,16.96
2022-11-16T13:52:35.683Z,17.10
2022-11-16T13:55:14.886Z,17.21
2022-11-16T13:57:59.784Z,16.67
2022-11-16T14:00:44.877Z,16.34
2022-11-16T14:03:29.657Z,15.78
2022-11-16T14:06:14.645Z,16.04
2022-11-16T14:08:59.633Z,16.49
2022-11-16T14:11:44.539Z,16.73
2022-11-16T14:14:29.268Z,16.27
2022-11-16T14:17:14.148Z,17.46
2022-11-16T14:19:58.918Z,19.10
2022-11-16T14:22:43.871Z,19.48
2022-11-16T14:25:29.152Z,19.01
2022-11-16T14:28:13.867Z,17.86
2022-11-16T14:30:58.827Z,18.19
2022-11-16T14:33:43.606Z,17.22
2022-11-16T14:36:28.540Z,16.19
2022-11-16T14:39:13.395Z,15.44
2022-11-16T14:41:58.474Z,14.89
2022-11-16T14:44:43.385Z,14.88
2022-11-16T14:47:28.304Z,15.43
2022-11-16T14:50:13.328Z,15.31
2022-11-16T14:52:58.244Z,15.60
2022-11-16T14:55:43.245Z,15.71
2022-11-16T14:58:27.970Z,14.84
2022-11-16T15:01:12.836Z,14.92
2022-11-16T15:03:57.777Z,14.76
2022-11-16T15:06:43.176Z,14.63
2022-11-16T15:09:28.165Z,14.67
2022-11-16T15:12:13.077Z,14.31
2022-11-16T15:14:58.084Z,14.19
2022-11-16T15:17:43.009Z,13.85
2022-11-16T15:20:27.837Z,13.61
2022-11-16T15:23:12.659Z,13.43
2022-11-16T15:25:57.642Z,13.87
2022-11-16T15:28:47.161Z,13.93
2022-11-16T15:31:34.662Z,13.82
2022-11-16T15:34:19.720Z,13.71
2022-11-16T15:37:04.680Z,13.68
2022-11-16T15:39:49.640Z,13.51
2022-11-16T15:42:34.603Z,13.65
2022-11-16T15:45:19.469Z,13.84
2022-11-16T15:48:04.364Z,13.33
2022-11-16T15:50:49.209Z,13.45
2022-11-16T15:53:34.495Z,12.90
2022-11-16T15:56:19.518Z,12.68
2022-11-16T15:59:04.462Z,12.64
2022-11-16T16:01:49.470Z,12.58
2022-11-16T16:04:34.328Z,12.41
2022-11-16T16:07:19.434Z,12.34
2022-11-16T16:10:04.773Z,12.17
2022-11-16T16:12:50.432Z,12.00
2022-11-16T16:15:35.229Z,12.16
2022-11-16T16:18:20.111Z,12.25
2022-11-16T16:21:04.973Z,12.11
2022-11-16T16:23:50.089Z,11.96
2022-11-16T16:26:35.034Z,12.12
2022-11-16T16:29:20.022Z,11.66
2022-11-16T16:32:05.069Z,12.08
2022-11-16T16:34:50.006Z,11.80
2022-11-16T16:37:34.981Z,11.38
2022-11-16T16:40:19.731Z,11.56
2022-11-16T16:43:04.867Z,11.68
2022-11-16T16:45:49.633Z,11.37
2022-11-16T16:48:34.584Z,11.13
2022-11-16T16:51:19.619Z,11.06
2022-11-16T16:54:04.482Z,11.17
2022-11-16T16:56:49.428Z,10.88
2022-11-16T16:59:34.367Z,10.88
2022-11-16T17:02:19.696Z,11.01
2022-11-16T17:05:04.652Z,11.11
2022-11-16T17:07:49.629Z,10.93
2022-11-16T17:10:34.546Z,10.74
2022-11-16T17:13:19.963Z,11.23
2022-11-16T17:16:05.240Z,11.16
2022-11-16T17:18:50.061Z,11.17
2022-11-16T17:21:34.923Z,11.27
2022-11-16T17:24:19.771Z,10.87
2022-11-16T17:27:04.785Z,11.19
2022-11-16T17:29:49.971Z,11.11
2022-11-16T17:32:35.132Z,11.37
2022-11-16T17:35:20.142Z,11.11
2022-11-16T17:38:05.016Z,11.00
2022-11-16T17:40:49.984Z,11.15
2022-11-16T17:43:35.186Z,11.16
2022-11-16T17:46:20.257Z,11.49
2022-11-16T17:49:05.197Z,11.34
2022-11-16T17:51:50.042Z,11.39
2022-11-16T17:54:35.007Z,11.09
2022-11-16T17:57:19.825Z,10.85
2022-11-16T18:00:04.937Z,10.96
2022-11-16T18:02:49.923Z,11.03
2022-11-16T18:05:34.975Z,10.90
2022-11-16T18:08:19.825Z,10.71
2022-11-16T18:11:04.642Z,10.48
2022-11-16T18:13:49.584Z,10.77
2022-11-16T18:16:34.648Z,10.82
2022-11-16T18:19:19.550Z,10.58
2022-11-16T18:22:04.497Z,10.33
2022-11-16T18:24:49.542Z,10.72
2022-11-16T18:27:34.534Z,10.67
2022-11-16T18:30:19.501Z,10.47
2022-11-16T18:33:04.309Z,10.58
2022-11-16T18:35:49.329Z,10.61
2022-11-16T18:38:34.029Z,10.26
2022-11-16T18:41:18.909Z,10.26
2022-11-16T18:44:03.770Z,10.46
2022-11-16T18:46:48.654Z,10.23
2022-11-16T18:49:33.726Z,10.56
2022-11-16T18:52:18.562Z,10.62
2022-11-16T18:55:03.408Z,10.62
2022-11-16T18:57:48.346Z,10.44
2022-11-16T19:00:33.250Z,10.86
2022-11-16T19:03:18.081Z,10.40
2022-11-16T19:06:03.115Z,10.48
2022-11-16T19:08:55.026Z,10.32
2022-11-16T19:11:40.645Z,10.10
2022-11-16T19:14:25.407Z,10.52
2022-11-16T19:17:10.298Z,10.54
2022-11-16T19:19:55.200Z,10.73
2022-11-16T19:22:39.957Z,10.71
2022-11-16T19:25:24.808Z,10.84
2022-11-16T19:28:09.648Z,10.75
2022-11-16T19:30:54.426Z,10.83
2022-11-16T19:33:39.357Z,10.92
2022-11-16T19:36:24.316Z,11.13
2022-11-16T19:39:09.325Z,10.78
2022-11-16T19:41:54.249Z,11.06
2022-11-16T19:44:39.116Z,11.03
2022-11-16T19:47:24.137Z,11.00
2022-11-16T19:50:08.979Z,11.05
2022-11-16T19:52:53.850Z,11.00
2022-11-16T19:55:38.661Z,10.91
2022-11-16T19:58:23.692Z,10.62
2022-11-16T20:01:08.846Z,10.68
2022-11-16T20:03:54.182Z,11.06
2022-11-16T20:06:39.171Z,11.04
2022-11-16T20:09:24.025Z,10.69
2022-11-16T20:12:08.975Z,10.72
2022-11-16T20:14:53.737Z,10.96
2022-11-16T20:17:38.874Z,11.08
2022-11-16T20:20:23.871Z,11.19
2022-11-16T20:23:08.771Z,10.76
2022-11-16T20:25:53.701Z,11.01
2022-11-16T20:28:38.512Z,11.03
2022-11-16T20:31:23.423Z,10.60
2022-11-16T20:34:08.290Z,10.70
2022-11-16T20:36:53.273Z,10.66
2022-11-16T20:39:38.211Z,10.93
2022-11-16T20:42:23.467Z,11.01
2022-11-16T20:45:08.358Z,10.86
2022-11-16T20:47:53.198Z,11.02
2022-11-16T20:50:39.333Z,10.98
2022-11-16T20:53:24.520Z,11.17
2022-11-16T20:56:09.380Z,10.61
2022-11-16T20:58:54.318Z,10.85
2022-11-16T21:01:39.335Z,10.75
2022-11-16T21:04:24.179Z,11.28
2022-11-16T21:07:09.119Z,11.32
2022-11-16T21:09:53.991Z,11.63
2022-11-16T21:12:42.781Z,10.47
2022-11-16T21:15:27.975Z,10.65
2022-11-16T21:18:12.862Z,10.86
2022-11-16T21:20:57.772Z,10.92
2022-11-16T21:23:42.710Z,10.38
2022-11-16T21:26:27.439Z,10.54
2022-11-16T21:29:12.406Z,11.16
2022-11-16T21:31:57.310Z,10.89
2022-11-16T21:34:42.274Z,11.08
2022-11-16T21:37:27.252Z,10.62
2022-11-16T21:40:12.212Z,10.48
2022-11-16T21:42:57.250Z,11.04
2022-11-16T21:45:42.079Z,11.27
2022-11-16T21:48:28.275Z,10.88
2022-11-16T21:51:13.019Z,10.82
2022-11-16T21:53:57.986Z,10.77
2022-11-16T21:56:42.860Z,10.79
2022-11-16T21:59:27.925Z,10.33
2022-11-16T22:02:12.855Z,10.46
2022-11-16T22:04:57.703Z,10.78
2022-11-16T22:07:42.707Z,10.49
2022-11-16T22:10:27.552Z,10.71
2022-11-16T22:13:12.548Z,11.09
2022-11-16T22:15:57.324Z,10.69
2022-11-16T22:18:42.242Z,10.88
2022-11-16T22:21:27.181Z,11.23
2022-11-16T22:24:12.065Z,11.36
2022-11-16T22:26:57.579Z,11.17
2022-11-16T22:29:42.445Z,11.24
2022-11-16T22:32:27.343Z,11.00
2022-11-16T22:35:12.294Z,11.38
2022-11-16T22:37:57.178Z,11.32
2022-11-16T22:40:42.050Z,10.92
2022-11-16T22:43:26.920Z,10.84
2022-11-16T22:46:11.706Z,10.99
2022-11-16T22:48:56.610Z,10.65
2022-11-16T22:51:41.556Z,11.20
2022-11-16T22:54:28.735Z,11.58
2022-11-16T22:57:14.141Z,11.37
2022-11-16T23:00:01.964Z,10.55
2022-11-16T23:02:46.781Z,10.33
2022-11-16T23:05:31.760Z,9.89
2022-11-16T23:08:16.633Z,10.27
2022-11-16T23:11:01.521Z,10.52
2022-11-16T23:13:46.527Z,10.82
2022-11-16T23:16:31.387Z,10.86
2022-11-16T23:19:16.396Z,10.96
2022-11-16T23:22:01.255Z,10.56
2022-11-16T23:24:46.268Z,10.76
2022-11-16T23:27:31.088Z,11.19
2022-11-16T23:30:16.244Z,10.93
2022-11-16T23:33:01.032Z,11.15
2022-11-16T23:35:45.968Z,11.34
2022-11-16T23:38:30.911Z,11.53
2022-11-16T23:41:15.978Z,11.45
2022-11-16T23:44:00.836Z,11.65
2022-11-16T23:46:45.709Z,10.90
2022-11-16T23:49:30.763Z,11.26
2022-11-16T23:52:15.709Z,11.26
2022-11-16T23:55:00.718Z,11.40
2022-11-16T23:57:45.558Z,11.34
